createdAt,value
2022-11-25T00:01:23.273Z,2.60
2022-11-25T00:03:53.776Z,2.45
2022-11-25T00:06:29.570Z,4.53
2022-11-25T00:09:08.271Z,4.63
2022-11-25T00:11:39.943Z,4.38
2022-11-25T00:14:07.936Z,4.20
2022-11-25T00:16:34.764Z,4.65
2022-11-25T00:19:01.561Z,6.90
2022-11-25T00:21:31.795Z,6.68
2022-11-25T00:24:00.837Z,6.57
2022-11-25T00:26:29.249Z,4.88
2022-11-25T00:28:58.838Z,5.03
2022-11-25T00:31:28.695Z,4.95
2022-11-25T00:33:56.387Z,6.07
2022-11-25T00:36:26.441Z,5.78
2022-11-25T00:38:58.496Z,6.65
2022-11-25T00:41:44.702Z,4.00
2022-11-25T00:44:32.085Z,2.55
2022-11-25T00:46:59.250Z,2.47
2022-11-25T00:49:26.025Z,2.90
2022-11-25T00:51:52.742Z,3.15
2022-11-25T00:54:19.563Z,4.43
2022-11-25T00:56:46.306Z,5.45
2022-11-25T00:59:13.122Z,5.72
2022-11-25T01:01:40.318Z,4.90
2022-11-25T01:04:07.544Z,4.65
2022-11-25T01:06:35.272Z,4.70
2022-11-25T01:09:02.326Z,4.05
2022-11-25T01:11:29.170Z,3.80
2022-11-25T01:14:00.866Z,4.47
2022-11-25T01:16:29.050Z,3.83
2022-11-25T01:18:55.952Z,3.78
2022-11-25T01:21:25.032Z,3.50
2022-11-25T01:23:52.979Z,3.00
2022-11-25T01:26:24.763Z,3.08
2022-11-25T01:28:57.422Z,3.67
2022-11-25T01:31:26.539Z,3.78
2022-11-25T01:34:02.185Z,4.45
2022-11-25T01:36:29.997Z,3.72
2022-11-25T01:38:59.178Z,3.13
2022-11-25T01:41:29.044Z,3.50
2022-11-25T01:44:09.705Z,3.53
2022-11-25T01:47:07.015Z,3.30
2022-11-25T01:49:46.061Z,3.72
2022-11-25T01:52:23.590Z,4.50
2022-11-25T01:54:56.929Z,4.10
2022-11-25T01:59:59.228Z,3.95
2022-11-25T02:02:26.388Z,3.70
2022-11-25T02:04:53.745Z,4.22
2022-11-25T02:07:31.452Z,4.13
2022-11-25T02:10:00.207Z,4.85
2022-11-25T02:12:28.206Z,4.80
2022-11-25T02:14:56.752Z,4.82
2022-11-25T02:17:23.820Z,5.03
2022-11-25T02:20:04.996Z,5.03
2022-11-25T02:22:56.921Z,4.53
2022-11-25T02:25:29.753Z,4.38
2022-11-25T02:28:17.227Z,4.43
2022-11-25T02:30:45.474Z,4.00
2022-11-25T02:33:12.798Z,4.18
2022-11-25T02:35:48.084Z,3.70
2022-11-25T02:38:19.087Z,3.88
2022-11-25T02:41:08.214Z,5.43
2022-11-25T02:43:35.331Z,4.90
2022-11-25T02:46:15.031Z,4.47
2022-11-25T02:49:07.919Z,4.97
2022-11-25T02:51:32.198Z,5.18
2022-11-25T02:53:59.915Z,6.53
2022-11-25T02:56:30.127Z,5.20
2022-11-25T02:58:57.226Z,4.90
2022-11-25T03:01:24.164Z,5.05
2022-11-25T03:03:51.011Z,5.15
2022-11-25T03:06:19.314Z,5.40
2022-11-25T03:08:46.086Z,4.85
2022-11-25T03:11:13.142Z,5.05
2022-11-25T03:13:40.010Z,6.05
2022-11-25T03:16:07.352Z,5.78
2022-11-25T03:18:34.701Z,4.60
2022-11-25T03:21:01.474Z,4.03
2022-11-25T03:23:28.687Z,6.35
2022-11-25T03:25:55.604Z,7.00
2022-11-25T03:28:22.329Z,6.25
2022-11-25T03:30:49.104Z,6.55
2022-11-25T03:33:15.808Z,5.47
2022-11-25T03:35:42.534Z,6.50
2022-11-25T03:38:09.292Z,5.85
2022-11-25T03:40:36.031Z,6.25
2022-11-25T03:43:02.833Z,6.55
2022-11-25T03:45:29.760Z,5.90
2022-11-25T03:47:56.514Z,5.82
2022-11-25T03:50:23.297Z,5.75
2022-11-25T03:52:50.028Z,5.38
2022-11-25T03:55:16.853Z,7.32
2022-11-25T03:57:43.715Z,7.22
2022-11-25T04:00:11.371Z,5.03
2022-11-25T04:02:38.171Z,5.07
2022-11-25T04:05:05.608Z,5.13
2022-11-25T04:07:32.614Z,5.57
2022-11-25T04:09:59.474Z,4.43
2022-11-25T04:12:44.778Z,4.75
2022-11-25T04:15:11.600Z,5.80
2022-11-25T04:17:38.518Z,5.63
2022-11-25T04:20:06.482Z,4.43
2022-11-25T04:22:33.513Z,5.30
2022-11-25T04:25:00.264Z,5.72
2022-11-25T04:27:27.019Z,3.63
2022-11-25T04:29:53.739Z,4.40
2022-11-25T04:32:20.522Z,5.35
2022-11-25T04:34:47.312Z,4.57
2022-11-25T04:37:14.069Z,5.72
2022-11-25T04:39:40.931Z,5.35
2022-11-25T04:42:26.517Z,6.00
2022-11-25T04:45:14.461Z,4.95
2022-11-25T04:47:40.358Z,4.82
2022-11-25T04:50:13.853Z,4.95
2022-11-25T04:52:40.846Z,5.07
2022-11-25T04:55:07.965Z,7.03
2022-11-25T04:57:34.783Z,5.68
2022-11-25T05:00:01.585Z,5.45
2022-11-25T05:02:28.984Z,5.28
2022-11-25T05:04:57.219Z,4.50
2022-11-25T05:07:26.086Z,4.47
2022-11-25T05:09:53.311Z,4.63
2022-11-25T05:12:24.578Z,5.70
2022-11-25T05:14:51.365Z,5.28
2022-11-25T05:17:21.239Z,5.10
2022-11-25T05:19:49.391Z,6.15
2022-11-25T05:22:19.893Z,5.68
2022-11-25T05:24:48.594Z,5.57
2022-11-25T05:27:16.219Z,5.60
2022-11-25T05:29:43.320Z,5.15
2022-11-25T05:32:10.551Z,5.75
2022-11-25T05:34:38.224Z,5.22
2022-11-25T05:37:05.654Z,6.10
2022-11-25T05:39:32.474Z,7.13
2022-11-25T05:41:59.557Z,6.88
2022-11-25T05:44:26.560Z,6.85
2022-11-25T05:46:53.493Z,14.93
2022-11-25T05:49:21.065Z,18.67
2022-11-25T05:51:48.294Z,16.33
2022-11-25T05:54:15.548Z,12.60
2022-11-25T05:56:42.358Z,19.70
2022-11-25T05:59:09.405Z,23.48
2022-11-25T06:01:36.311Z,13.50
2022-11-25T06:04:04.797Z,11.40
2022-11-25T06:06:32.168Z,6.97
2022-11-25T06:08:59.291Z,5.60
2022-11-25T06:11:26.046Z,6.60
2022-11-25T06:13:52.913Z,6.20
2022-11-25T06:16:22.784Z,6.63
2022-11-25T06:18:49.851Z,6.25
2022-11-25T06:21:17.577Z,5.68
2022-11-25T06:23:47.397Z,6.25
2022-11-25T06:26:17.464Z,6.22
2022-11-25T06:28:44.527Z,7.18
2022-11-25T06:31:18.654Z,6.95
2022-11-25T06:33:49.614Z,8.02
2022-11-25T06:36:17.360Z,7.57
2022-11-25T06:38:49.316Z,8.18
2022-11-25T06:41:17.124Z,9.00
2022-11-25T06:43:44.332Z,8.68
2022-11-25T06:46:13.809Z,8.68
2022-11-25T06:48:40.677Z,10.32
2022-11-25T06:51:10.990Z,9.82
2022-11-25T06:53:39.154Z,9.82
2022-11-25T06:56:23.685Z,10.43
2022-11-25T06:58:51.625Z,10.27
2022-11-25T07:01:20.815Z,10.52
2022-11-25T07:03:49.507Z,9.98
2022-11-25T07:06:18.096Z,8.80
2022-11-25T07:08:45.368Z,8.65
2022-11-25T07:11:18.261Z,8.00
2022-11-25T07:13:46.080Z,7.88
2022-11-25T07:16:13.700Z,7.22
2022-11-25T07:18:41.474Z,7.78
2022-11-25T07:21:30.254Z,6.97
2022-11-25T07:24:02.308Z,6.80
2022-11-25T07:26:31.745Z,6.77
2022-11-25T07:29:01.279Z,7.25
2022-11-25T07:31:34.578Z,7.53
2022-11-25T07:36:29.810Z,6.78
2022-11-25T07:38:59.033Z,8.32
2022-11-25T07:41:27.209Z,9.10
2022-11-25T07:44:00.049Z,8.93
2022-11-25T07:46:32.507Z,9.05
2022-11-25T07:49:02.023Z,9.65
2022-11-25T07:51:38.002Z,8.43
2022-11-25T07:54:07.454Z,8.57
2022-11-25T07:56:36.698Z,8.50
2022-11-25T07:59:03.606Z,8.60
2022-11-25T08:01:30.474Z,7.90
2022-11-25T08:03:57.997Z,10.13
2022-11-25T08:06:27.420Z,9.02
2022-11-25T08:08:56.402Z,9.10
2022-11-25T08:11:29.134Z,11.60
2022-11-25T08:13:56.908Z,13.43
2022-11-25T08:16:27.199Z,14.52
2022-11-25T08:18:55.186Z,14.52
2022-11-25T08:21:21.981Z,14.50
2022-11-25T08:23:49.263Z,13.95
2022-11-25T08:26:27.567Z,14.85
2022-11-25T08:28:54.760Z,13.93
2022-11-25T08:31:30.652Z,13.75
2022-11-25T08:33:58.785Z,13.07
2022-11-25T08:36:26.771Z,12.55
2022-11-25T08:38:57.633Z,13.63
2022-11-25T08:41:31.053Z,12.05
2022-11-25T08:46:29.076Z,16.45
2022-11-25T08:48:56.711Z,15.15
2022-11-25T08:51:27.882Z,14.65
2022-11-25T08:53:54.968Z,16.20
2022-11-25T08:56:26.338Z,15.43
2022-11-25T08:58:54.559Z,13.73
2022-11-25T09:01:22.802Z,11.27
2022-11-25T09:03:51.502Z,12.23
2022-11-25T09:06:19.039Z,10.88
2022-11-25T09:08:46.326Z,10.20
2022-11-25T09:11:13.877Z,11.68
2022-11-25T09:13:41.777Z,11.98
2022-11-25T09:16:17.970Z,11.07
2022-11-25T09:18:55.800Z,12.13
2022-11-25T09:21:25.079Z,11.68
2022-11-25T09:23:56.142Z,10.50
2022-11-25T09:26:29.886Z,10.52
2022-11-25T09:29:03.985Z,9.70
2022-11-25T09:31:31.106Z,9.93
2022-11-25T09:33:57.931Z,9.00
2022-11-25T09:36:25.035Z,9.88
2022-11-25T09:39:24.780Z,9.70
2022-11-25T09:42:36.690Z,9.45
2022-11-25T09:45:31.635Z,9.32
2022-11-25T09:48:43.756Z,8.65
2022-11-25T09:52:00.035Z,8.57
2022-11-25T09:54:44.014Z,9.65
2022-11-25T09:58:07.841Z,9.55
2022-11-25T10:00:43.648Z,9.65
2022-11-25T10:03:52.045Z,9.00
2022-11-25T10:06:30.254Z,8.85
2022-11-25T10:09:04.936Z,8.05
2022-11-25T10:11:46.858Z,9.13
2022-11-25T10:14:35.587Z,8.65
2022-11-25T10:17:10.167Z,8.13
2022-11-25T10:20:01.968Z,8.45
2022-11-25T10:22:41.275Z,8.43
2022-11-25T10:25:33.039Z,8.18
2022-11-25T10:28:06.765Z,8.02
2022-11-25T10:30:55.435Z,7.68
2022-11-25T10:33:30.638Z,7.45
2022-11-25T10:36:24.537Z,6.45
2022-11-25T10:39:05.191Z,6.80
2022-11-25T10:41:55.500Z,6.70
2022-11-25T10:44:34.032Z,6.13
2022-11-25T10:47:31.200Z,4.95
2022-11-25T10:50:07.576Z,3.78
2022-11-25T10:52:46.197Z,3.78
2022-11-25T10:55:16.974Z,3.13
2022-11-25T10:57:51.220Z,3.15
2022-11-25T11:00:44.493Z,3.20
2022-11-25T11:03:25.850Z,3.13
2022-11-25T11:05:55.206Z,3.00
2022-11-25T11:08:32.767Z,3.00
2022-11-25T11:11:21.810Z,2.92
2022-11-25T11:14:01.962Z,2.63
2022-11-25T11:16:35.954Z,2.70
2022-11-25T11:19:20.131Z,2.90
2022-11-25T11:21:50.471Z,2.38
2022-11-25T11:24:42.485Z,2.80
2022-11-25T11:27:18.336Z,2.80
2022-11-25T11:29:50.751Z,2.80
2022-11-25T11:32:25.479Z,2.72
2022-11-25T11:35:07.980Z,2.55
2022-11-25T11:37:42.821Z,2.60
2022-11-25T11:40:50.338Z,2.78
2022-11-25T11:43:33.964Z,2.58
2022-11-25T11:48:53.413Z,2.33
2022-11-25T11:51:40.305Z,2.38
2022-11-25T11:54:14.063Z,2.63
2022-11-25T11:56:55.593Z,2.50
2022-11-25T11:59:40.429Z,2.30
2022-11-25T12:02:22.345Z,2.80
2022-11-25T12:05:02.581Z,2.83
2022-11-25T12:07:36.702Z,2.95
2022-11-25T12:10:20.050Z,3.33
2022-11-25T12:13:04.745Z,3.38
2022-11-25T12:15:55.997Z,3.90
2022-11-25T12:18:43.827Z,3.92
2022-11-25T12:21:40.354Z,4.00
2022-11-25T12:24:37.988Z,4.28
2022-11-25T12:27:31.113Z,4.15
2022-11-25T12:30:05.418Z,4.30
2022-11-25T12:32:41.308Z,4.18
2022-11-25T12:35:49.287Z,3.88
2022-11-25T12:38:31.388Z,3.65
2022-11-25T12:41:17.600Z,4.60
2022-11-25T12:43:57.667Z,4.50
2022-11-25T12:46:27.910Z,4.90
2022-11-25T12:48:56.665Z,4.90
2022-11-25T12:51:41.018Z,5.47
2022-11-25T12:54:34.143Z,5.00
2022-11-25T12:57:44.510Z,5.65
2022-11-25T13:00:45.300Z,5.35
2022-11-25T13:03:49.924Z,6.13
2022-11-25T13:06:38.714Z,5.60
2022-11-25T13:09:23.286Z,6.00
2022-11-25T13:11:53.073Z,6.05
2022-11-25T13:15:12.053Z,6.35
2022-11-25T13:17:44.458Z,7.20
2022-11-25T13:20:29.622Z,6.80
2022-11-25T13:23:10.295Z,6.07
2022-11-25T13:25:42.349Z,5.80
2022-11-25T13:28:31.029Z,5.80
2022-11-25T13:31:25.104Z,6.07
2022-11-25T13:33:56.424Z,6.50
2022-11-25T13:36:25.662Z,7.45
2022-11-25T13:38:52.377Z,6.57
2022-11-25T13:41:34.857Z,6.70
2022-11-25T13:44:28.274Z,6.45
2022-11-25T13:46:56.771Z,6.60
2022-11-25T13:49:52.280Z,5.88
2022-11-25T13:52:18.996Z,6.30
2022-11-25T13:54:50.226Z,5.95
2022-11-25T13:57:21.934Z,5.93
2022-11-25T13:59:56.263Z,5.90
2022-11-25T14:02:28.926Z,5.97
2022-11-25T14:05:39.095Z,6.72
2022-11-25T14:08:19.249Z,6.57
2022-11-25T14:11:12.218Z,6.15
2022-11-25T14:14:08.892Z,6.50
2022-11-25T14:16:52.293Z,6.05
2022-11-25T14:19:51.970Z,6.55
2022-11-25T14:22:37.747Z,6.85
2022-11-25T14:25:26.671Z,6.68
2022-11-25T14:28:07.899Z,6.85
2022-11-25T14:30:46.630Z,6.82
2022-11-25T14:33:24.029Z,6.72
2022-11-25T14:35:55.573Z,6.35
2022-11-25T14:38:43.611Z,7.15
2022-11-25T14:41:34.866Z,7.22
2022-11-25T14:44:07.042Z,7.78
2022-11-25T14:46:33.873Z,7.85
2022-11-25T14:49:07.676Z,7.70
2022-11-25T14:51:41.566Z,7.15
2022-11-25T14:54:09.774Z,8.35
2022-11-25T14:56:37.587Z,8.00
2022-11-25T14:59:07.351Z,8.48
2022-11-25T15:01:36.126Z,7.85
2022-11-25T15:04:17.290Z,7.38
2022-11-25T15:06:52.408Z,7.53
2022-11-25T15:09:28.819Z,8.07
2022-11-25T15:12:20.421Z,6.80
2022-11-25T15:14:53.454Z,6.82
2022-11-25T15:17:33.193Z,6.68
2022-11-25T15:20:04.804Z,7.03
2022-11-25T15:22:31.905Z,7.00
2022-11-25T15:25:13.078Z,6.75
2022-11-25T15:27:45.960Z,6.72
2022-11-25T15:30:24.068Z,5.93
2022-11-25T15:32:51.918Z,6.30
2022-11-25T15:35:25.597Z,6.05
2022-11-25T15:37:54.361Z,6.43
2022-11-25T15:40:36.801Z,5.97
2022-11-25T15:43:21.684Z,5.90
2022-11-25T15:45:52.370Z,5.93
2022-11-25T15:48:46.136Z,5.95
2022-11-25T15:51:21.402Z,6.43
2022-11-25T15:54:04.641Z,6.03
2022-11-25T15:56:35.511Z,5.60
2022-11-25T15:59:02.424Z,6.20
2022-11-25T16:01:30.886Z,5.95
2022-11-25T16:04:25.558Z,5.68
2022-11-25T16:06:57.706Z,5.70
2022-11-25T16:09:25.494Z,5.25
2022-11-25T16:11:52.392Z,5.55
2022-11-25T16:14:19.918Z,5.68
2022-11-25T16:16:47.307Z,6.13
2022-11-25T16:19:25.094Z,6.32
2022-11-25T16:22:03.620Z,6.45
2022-11-25T16:24:52.363Z,6.32
2022-11-25T16:27:24.861Z,6.68
2022-11-25T16:30:05.470Z,6.65
2022-11-25T16:32:33.135Z,6.35
2022-11-25T16:35:29.290Z,7.30
2022-11-25T16:37:58.305Z,6.93
2022-11-25T16:40:27.809Z,6.75
2022-11-25T16:42:54.529Z,7.10
2022-11-25T16:45:23.978Z,6.38
2022-11-25T16:47:50.843Z,7.72
2022-11-25T16:50:20.167Z,7.70
2022-11-25T16:52:47.155Z,7.80
2022-11-25T16:55:13.965Z,8.23
2022-11-25T16:57:41.858Z,8.82
2022-11-25T17:00:16.760Z,8.50
2022-11-25T17:02:44.821Z,8.68
2022-11-25T17:05:21.548Z,9.10
2022-11-25T17:07:50.298Z,9.02
2022-11-25T17:10:18.086Z,10.55
2022-11-25T17:12:45.925Z,10.52
2022-11-25T17:15:19.224Z,9.52
2022-11-25T17:20:21.482Z,8.75
2022-11-25T17:22:48.401Z,9.90
2022-11-25T17:25:15.405Z,10.20
2022-11-25T17:27:43.155Z,10.02
2022-11-25T17:30:27.702Z,10.10
2022-11-25T17:33:06.910Z,9.60
2022-11-25T17:35:33.757Z,9.82
2022-11-25T17:38:01.199Z,9.50
2022-11-25T17:40:28.327Z,9.98
2022-11-25T17:42:55.393Z,11.05
2022-11-25T17:45:22.324Z,11.70
2022-11-25T17:47:49.649Z,11.20
2022-11-25T17:50:25.524Z,11.98
2022-11-25T17:52:52.553Z,12.00
2022-11-25T17:55:21.785Z,12.43
2022-11-25T17:57:51.846Z,12.93
2022-11-25T18:00:22.241Z,12.30
2022-11-25T18:02:49.927Z,12.00
2022-11-25T18:05:26.533Z,11.68
2022-11-25T18:07:53.383Z,11.20
2022-11-25T18:10:23.955Z,11.57
2022-11-25T18:12:53.385Z,10.82
2022-11-25T18:15:29.442Z,10.60
2022-11-25T18:18:15.023Z,10.48
2022-11-25T18:20:41.869Z,10.82
2022-11-25T18:23:09.638Z,11.70
2022-11-25T18:25:36.561Z,11.50
2022-11-25T18:28:04.783Z,12.02
2022-11-25T18:30:34.551Z,11.68
2022-11-25T18:33:01.683Z,12.82
2022-11-25T18:35:35.790Z,12.05
2022-11-25T18:38:03.642Z,11.57
2022-11-25T18:40:30.697Z,11.45
2022-11-25T18:43:01.398Z,11.10
2022-11-25T18:45:33.136Z,11.00
2022-11-25T18:48:00.055Z,11.13
2022-11-25T18:50:27.594Z,11.15
2022-11-25T18:52:54.392Z,11.50
2022-11-25T18:55:23.292Z,11.15
2022-11-25T18:57:52.045Z,10.63
2022-11-25T19:00:32.260Z,11.40
2022-11-25T19:02:59.962Z,12.27
2022-11-25T19:05:30.798Z,12.07
2022-11-25T19:07:58.233Z,12.63
2022-11-25T19:10:30.667Z,11.88
2022-11-25T19:13:02.692Z,10.88
2022-11-25T19:15:29.530Z,12.10
2022-11-25T19:17:59.331Z,11.13
2022-11-25T19:20:28.253Z,11.43
2022-11-25T19:23:00.374Z,10.73
2022-11-25T19:25:29.993Z,12.35
2022-11-25T19:27:59.947Z,12.50
2022-11-25T19:30:34.193Z,13.52
2022-11-25T19:33:02.719Z,11.27
2022-11-25T19:35:40.696Z,14.07
2022-11-25T19:38:18.174Z,11.75
2022-11-25T19:40:44.971Z,12.65
2022-11-25T19:43:13.346Z,11.98
2022-11-25T19:45:44.054Z,12.27
2022-11-25T19:48:18.006Z,13.00
2022-11-25T19:50:56.216Z,12.73
2022-11-25T19:53:23.138Z,12.68
2022-11-25T19:55:52.774Z,13.60
2022-11-25T19:58:23.939Z,12.75
2022-11-25T20:00:50.765Z,12.20
2022-11-25T20:03:24.316Z,12.48
2022-11-25T20:08:22.251Z,11.48
2022-11-25T20:10:51.258Z,12.85
2022-11-25T20:13:20.833Z,12.15
2022-11-25T20:15:50.772Z,11.65
2022-11-25T20:18:20.544Z,11.32
2022-11-25T20:20:58.447Z,11.90
2022-11-25T20:23:41.784Z,11.90
2022-11-25T20:26:31.326Z,11.80
2022-11-25T20:28:58.134Z,10.90
2022-11-25T20:31:30.209Z,11.25
2022-11-25T20:33:57.394Z,12.60
2022-11-25T20:36:31.426Z,12.35
2022-11-25T20:38:59.740Z,13.88
2022-11-25T20:41:28.298Z,12.23
2022-11-25T20:43:56.150Z,13.15
2022-11-25T20:46:26.951Z,13.57
2022-11-25T20:48:56.491Z,12.50
2022-11-25T20:51:24.549Z,13.95
2022-11-25T20:53:53.803Z,12.80
2022-11-25T20:56:25.977Z,12.00
2022-11-25T20:58:53.067Z,13.15
2022-11-25T21:01:19.973Z,12.50
2022-11-25T21:03:48.448Z,13.63
2022-11-25T21:06:25.645Z,12.50
2022-11-25T21:08:53.983Z,12.45
2022-11-25T21:11:22.638Z,13.27
2022-11-25T21:13:50.224Z,12.75
2022-11-25T21:16:17.770Z,13.13
2022-11-25T21:18:44.657Z,11.65
2022-11-25T21:21:28.529Z,11.20
2022-11-25T21:23:55.997Z,11.43
2022-11-25T21:26:25.822Z,11.43
2022-11-25T21:28:54.056Z,11.10
2022-11-25T21:31:25.294Z,11.48
2022-11-25T21:33:58.207Z,10.90
2022-11-25T21:36:30.286Z,13.02
2022-11-25T21:39:06.815Z,11.35
2022-11-25T21:41:35.194Z,11.27
2022-11-25T21:44:05.930Z,12.15
2022-11-25T21:46:32.757Z,11.15
2022-11-25T21:48:59.630Z,11.40
2022-11-25T21:51:26.396Z,10.98
2022-11-25T21:53:54.198Z,11.80
2022-11-25T21:56:39.221Z,12.52
2022-11-25T21:59:08.201Z,11.55
2022-11-25T22:01:34.978Z,13.00
2022-11-25T22:04:01.784Z,12.43
2022-11-25T22:06:30.780Z,13.05
2022-11-25T22:08:57.936Z,14.73
2022-11-25T22:11:33.036Z,15.15
2022-11-25T22:14:02.932Z,16.33
2022-11-25T22:16:32.806Z,17.63
2022-11-25T22:18:59.880Z,16.67
2022-11-25T22:21:26.755Z,16.40
2022-11-25T22:23:53.480Z,15.60
2022-11-25T22:26:33.887Z,16.20
2022-11-25T22:29:01.922Z,15.80
2022-11-25T22:31:29.425Z,13.82
2022-11-25T22:33:56.327Z,14.55
2022-11-25T22:36:25.819Z,15.48
2022-11-25T22:38:53.036Z,15.00
2022-11-25T22:41:20.376Z,16.67
2022-11-25T22:43:51.648Z,18.85
2022-11-25T22:46:18.762Z,18.67
2022-11-25T22:48:45.981Z,17.70
2022-11-25T22:51:26.045Z,18.70
2022-11-25T22:53:52.887Z,17.00
2022-11-25T22:56:20.099Z,15.43
2022-11-25T22:58:47.022Z,15.32
2022-11-25T23:01:16.425Z,14.45
2022-11-25T23:03:44.164Z,14.02
2022-11-25T23:06:13.061Z,13.57
2022-11-25T23:08:40.421Z,15.55
2022-11-25T23:11:13.539Z,14.05
2022-11-25T23:13:40.328Z,15.73
2022-11-25T23:16:07.366Z,15.52
2022-11-25T23:18:39.362Z,16.08
2022-11-25T23:21:29.093Z,15.75
2022-11-25T23:23:56.520Z,15.38
2022-11-25T23:26:23.517Z,14.63
2022-11-25T23:28:51.290Z,15.93
2022-11-25T23:31:18.378Z,14.68
2022-11-25T23:33:47.816Z,13.07
2022-11-25T23:36:18.834Z,13.75
2022-11-25T23:38:57.811Z,14.18
2022-11-25T23:41:33.565Z,13.82
2022-11-25T23:44:17.570Z,13.65
2022-11-25T23:46:45.402Z,14.52
2022-11-25T23:49:26.368Z,14.15
2022-11-25T23:51:57.058Z,12.18
2022-11-25T23:54:28.884Z,13.95
2022-11-25T23:56:55.637Z,13.73
2022-11-25T23:59:23.514Z,13.93
